sensor_id;sensor_type;location;lat;lon;timestamp;P1;durP1;ratioP1;P2;durP2;ratioP2
53843;SDS011;39744;53.314;5.710;2022-11-04T00:01:32;10.52;;;1.70;;
53843;SDS011;39744;53.314;5.710;2022-11-04T00:03:58;6.63;;;0.98;;
53843;SDS011;39744;53.314;5.710;2022-11-04T00:06:24;11.15;;;1.17;;
53843;SDS011;39744;53.314;5.710;2022-11-04T00:08:51;8.15;;;1.35;;
53843;SDS011;39744;53.314;5.710;2022-11-04T00:11:17;10.80;;;2.00;;
53843;SDS011;39744;53.314;5.710;2022-11-04T00:14:03;8.90;;;1.85;;
53843;SDS011;39744;53.314;5.710;2022-11-04T00:16:29;9.38;;;1.35;;
53843;SDS011;39744;53.314;5.710;2022-11-04T00:19:14;4.57;;;0.95;;
53843;SDS011;39744;53.314;5.710;2022-11-04T00:21:41;7.32;;;1.15;;
53843;SDS011;39744;53.314;5.710;2022-11-04T00:24:26;5.78;;;0.93;;
53843;SDS011;39744;53.314;5.710;2022-11-04T00:27:07;15.07;;;1.30;;
53843;SDS011;39744;53.314;5.710;2022-11-04T00:29:53;6.72;;;1.58;;
53843;SDS011;39744;53.314;5.710;2022-11-04T00:32:19;7.72;;;1.05;;
53843;SDS011;39744;53.314;5.710;2022-11-04T00:35:04;9.40;;;1.27;;
53843;SDS011;39744;53.314;5.710;2022-11-04T00:37:30;6.63;;;1.17;;
53843;SDS011;39744;53.314;5.710;2022-11-04T00:39:56;2.47;;;0.77;;
53843;SDS011;39744;53.314;5.710;2022-11-04T00:42:22;9.40;;;1.10;;
53843;SDS011;39744;53.314;5.710;2022-11-04T00:44:48;11.07;;;1.42;;
53843;SDS011;39744;53.314;5.710;2022-11-04T00:47:14;6.43;;;1.15;;
53843;SDS011;39744;53.314;5.710;2022-11-04T00:49:40;10.05;;;1.10;;
53843;SDS011;39744;53.314;5.710;2022-11-04T00:52:06;9.07;;;1.33;;
53843;SDS011;39744;53.314;5.710;2022-11-04T00:54:32;8.88;;;1.52;;
53843;SDS011;39744;53.314;5.710;2022-11-04T00:56:58;7.18;;;1.10;;
53843;SDS011;39744;53.314;5.710;2022-11-04T00:59:24;7.53;;;1.27;;
53843;SDS011;39744;53.314;5.710;2022-11-04T01:01:50;8.45;;;1.20;;
53843;SDS011;39744;53.314;5.710;2022-11-04T01:04:16;13.52;;;1.60;;
53843;SDS011;39744;53.314;5.710;2022-11-04T01:06:42;7.63;;;1.27;;
53843;SDS011;39744;53.314;5.710;2022-11-04T01:09:09;9.02;;;1.10;;
53843;SDS011;39744;53.314;5.710;2022-11-04T01:11:36;8.02;;;1.02;;
53843;SDS011;39744;53.314;5.710;2022-11-04T01:14:02;10.73;;;1.30;;
53843;SDS011;39744;53.314;5.710;2022-11-04T01:16:28;11.23;;;1.60;;
53843;SDS011;39744;53.314;5.710;2022-11-04T01:18:55;8.43;;;0.80;;
53843;SDS011;39744;53.314;5.710;2022-11-04T01:21:21;7.22;;;1.15;;
53843;SDS011;39744;53.314;5.710;2022-11-04T01:23:47;8.07;;;0.98;;
53843;SDS011;39744;53.314;5.710;2022-11-04T01:26:14;9.65;;;1.35;;
53843;SDS011;39744;53.314;5.710;2022-11-04T01:28:40;7.25;;;1.23;;
53843;SDS011;39744;53.314;5.710;2022-11-04T01:31:06;6.78;;;1.10;;
53843;SDS011;39744;53.314;5.710;2022-11-04T01:33:33;9.70;;;1.23;;
53843;SDS011;39744;53.314;5.710;2022-11-04T01:35:59;7.75;;;1.23;;
53843;SDS011;39744;53.314;5.710;2022-11-04T01:38:25;7.97;;;1.10;;
53843;SDS011;39744;53.314;5.710;2022-11-04T01:40:51;9.43;;;1.83;;
53843;SDS011;39744;53.314;5.710;2022-11-04T01:43:18;8.77;;;1.15;;
53843;SDS011;39744;53.314;5.710;2022-11-04T01:45:49;9.45;;;1.25;;
53843;SDS011;39744;53.314;5.710;2022-11-04T01:48:18;11.20;;;1.65;;
53843;SDS011;39744;53.314;5.710;2022-11-04T01:50:46;8.60;;;1.42;;
53843;SDS011;39744;53.314;5.710;2022-11-04T01:53:14;7.65;;;1.30;;
53843;SDS011;39744;53.314;5.710;2022-11-04T01:55:50;5.88;;;1.42;;
53843;SDS011;39744;53.314;5.710;2022-11-04T01:58:16;5.88;;;1.20;;
53843;SDS011;39744;53.314;5.710;2022-11-04T02:00:43;10.18;;;1.65;;
53843;SDS011;39744;53.314;5.710;2022-11-04T02:05:41;7.63;;;1.20;;
53843;SDS011;39744;53.314;5.710;2022-11-04T02:08:08;7.70;;;1.20;;
53843;SDS011;39744;53.314;5.710;2022-11-04T02:10:34;6.13;;;1.10;;
53843;SDS011;39744;53.314;5.710;2022-11-04T02:13:02;6.03;;;1.17;;
53843;SDS011;39744;53.314;5.710;2022-11-04T02:18:14;7.65;;;1.20;;
53843;SDS011;39744;53.314;5.710;2022-11-04T02:21:06;6.85;;;1.92;;
53843;SDS011;39744;53.314;5.710;2022-11-04T02:31:25;7.72;;;1.10;;
53843;SDS011;39744;53.314;5.710;2022-11-04T02:33:57;4.50;;;1.08;;
53843;SDS011;39744;53.314;5.710;2022-11-04T02:36:34;8.70;;;1.40;;
53843;SDS011;39744;53.314;5.710;2022-11-04T02:41:42;5.97;;;1.05;;
53843;SDS011;39744;53.314;5.710;2022-11-04T02:44:21;4.43;;;1.05;;
53843;SDS011;39744;53.314;5.710;2022-11-04T02:46:50;6.75;;;1.08;;
53843;SDS011;39744;53.314;5.710;2022-11-04T02:49:19;5.43;;;0.85;;
53843;SDS011;39744;53.314;5.710;2022-11-04T02:51:48;7.85;;;1.00;;
53843;SDS011;39744;53.314;5.710;2022-11-04T02:54:21;4.63;;;0.90;;
53843;SDS011;39744;53.314;5.710;2022-11-04T02:56:50;6.80;;;1.45;;
53843;SDS011;39744;53.314;5.710;2022-11-04T02:59:22;7.07;;;1.13;;
53843;SDS011;39744;53.314;5.710;2022-11-04T03:01:50;5.25;;;1.65;;
53843;SDS011;39744;53.314;5.710;2022-11-04T03:04:19;6.93;;;1.25;;
53843;SDS011;39744;53.314;5.710;2022-11-04T03:06:47;8.10;;;1.77;;
53843;SDS011;39744;53.314;5.710;2022-11-04T03:09:14;9.45;;;1.40;;
53843;SDS011;39744;53.314;5.710;2022-11-04T03:11:42;6.38;;;1.10;;
53843;SDS011;39744;53.314;5.710;2022-11-04T03:14:12;8.95;;;1.10;;
53843;SDS011;39744;53.314;5.710;2022-11-04T03:16:40;10.32;;;1.60;;
53843;SDS011;39744;53.314;5.710;2022-11-04T03:21:34;7.50;;;1.23;;
53843;SDS011;39744;53.314;5.710;2022-11-04T03:24:01;7.63;;;1.17;;
53843;SDS011;39744;53.314;5.710;2022-11-04T03:26:30;9.55;;;1.63;;
53843;SDS011;39744;53.314;5.710;2022-11-04T03:31:25;8.88;;;1.00;;
53843;SDS011;39744;53.314;5.710;2022-11-04T03:33:52;11.13;;;1.10;;
53843;SDS011;39744;53.314;5.710;2022-11-04T03:36:19;4.85;;;0.73;;
53843;SDS011;39744;53.314;5.710;2022-11-04T03:38:46;4.07;;;0.80;;
53843;SDS011;39744;53.314;5.710;2022-11-04T03:41:16;8.57;;;1.10;;
53843;SDS011;39744;53.314;5.710;2022-11-04T03:43:43;5.82;;;1.02;;
53843;SDS011;39744;53.314;5.710;2022-11-04T03:46:09;7.28;;;1.20;;
53843;SDS011;39744;53.314;5.710;2022-11-04T03:48:35;5.90;;;1.00;;
53843;SDS011;39744;53.314;5.710;2022-11-04T03:51:02;7.75;;;1.30;;
53843;SDS011;39744;53.314;5.710;2022-11-04T03:53:28;3.63;;;0.90;;
53843;SDS011;39744;53.314;5.710;2022-11-04T03:56:03;4.53;;;1.00;;
53843;SDS011;39744;53.314;5.710;2022-11-04T03:58:40;6.00;;;1.02;;
53843;SDS011;39744;53.314;5.710;2022-11-04T04:01:31;6.43;;;1.20;;
53843;SDS011;39744;53.314;5.710;2022-11-04T04:04:13;8.95;;;1.67;;
53843;SDS011;39744;53.314;5.710;2022-11-04T04:06:42;6.15;;;1.00;;
53843;SDS011;39744;53.314;5.710;2022-11-04T04:09:25;13.60;;;1.48;;
53843;SDS011;39744;53.314;5.710;2022-11-04T04:12:02;6.75;;;1.90;;
53843;SDS011;39744;53.314;5.710;2022-11-04T04:14:31;10.02;;;1.48;;
53843;SDS011;39744;53.314;5.710;2022-11-04T04:17:06;9.65;;;1.30;;
53843;SDS011;39744;53.314;5.710;2022-11-04T04:19:33;7.22;;;1.33;;
53843;SDS011;39744;53.314;5.710;2022-11-04T04:22:08;14.77;;;2.00;;
53843;SDS011;39744;53.314;5.710;2022-11-04T04:24:36;12.02;;;1.45;;
53843;SDS011;39744;53.314;5.710;2022-11-04T04:27:23;8.73;;;1.50;;
53843;SDS011;39744;53.314;5.710;2022-11-04T04:29:57;11.15;;;1.88;;
53843;SDS011;39744;53.314;5.710;2022-11-04T04:32:23;14.20;;;1.60;;
53843;SDS011;39744;53.314;5.710;2022-11-04T04:34:50;12.55;;;1.58;;
53843;SDS011;39744;53.314;5.710;2022-11-04T04:37:36;11.55;;;1.70;;
53843;SDS011;39744;53.314;5.710;2022-11-04T04:40:02;9.80;;;1.40;;
53843;SDS011;39744;53.314;5.710;2022-11-04T04:42:50;11.00;;;1.42;;
53843;SDS011;39744;53.314;5.710;2022-11-04T04:45:35;12.80;;;1.63;;
53843;SDS011;39744;53.314;5.710;2022-11-04T04:48:02;9.02;;;1.30;;
53843;SDS011;39744;53.314;5.710;2022-11-04T04:50:30;11.93;;;1.52;;
53843;SDS011;39744;53.314;5.710;2022-11-04T04:52:58;10.80;;;1.50;;
53843;SDS011;39744;53.314;5.710;2022-11-04T04:55:24;9.90;;;1.33;;
53843;SDS011;39744;53.314;5.710;2022-11-04T04:57:50;8.77;;;1.35;;
53843;SDS011;39744;53.314;5.710;2022-11-04T05:00:17;4.68;;;1.27;;
53843;SDS011;39744;53.314;5.710;2022-11-04T05:02:44;6.70;;;1.02;;
53843;SDS011;39744;53.314;5.710;2022-11-04T05:05:10;7.30;;;1.30;;
53843;SDS011;39744;53.314;5.710;2022-11-04T05:07:37;7.63;;;1.30;;
53843;SDS011;39744;53.314;5.710;2022-11-04T05:10:03;10.40;;;1.40;;
53843;SDS011;39744;53.314;5.710;2022-11-04T05:12:30;5.38;;;1.00;;
53843;SDS011;39744;53.314;5.710;2022-11-04T05:15:15;5.28;;;1.40;;
53843;SDS011;39744;53.314;5.710;2022-11-04T05:17:41;6.28;;;1.20;;
53843;SDS011;39744;53.314;5.710;2022-11-04T05:20:07;8.60;;;1.35;;
53843;SDS011;39744;53.314;5.710;2022-11-04T05:22:33;6.40;;;1.20;;
53843;SDS011;39744;53.314;5.710;2022-11-04T05:24:59;7.85;;;1.38;;
53843;SDS011;39744;53.314;5.710;2022-11-04T05:27:25;10.93;;;1.45;;
53843;SDS011;39744;53.314;5.710;2022-11-04T05:29:51;7.28;;;1.35;;
53843;SDS011;39744;53.314;5.710;2022-11-04T05:32:17;8.50;;;1.38;;
53843;SDS011;39744;53.314;5.710;2022-11-04T05:34:43;7.90;;;1.25;;
53843;SDS011;39744;53.314;5.710;2022-11-04T05:37:09;10.30;;;1.30;;
53843;SDS011;39744;53.314;5.710;2022-11-04T05:39:35;6.28;;;1.30;;
53843;SDS011;39744;53.314;5.710;2022-11-04T05:42:01;9.00;;;1.60;;
53843;SDS011;39744;53.314;5.710;2022-11-04T05:44:27;10.32;;;1.60;;
53843;SDS011;39744;53.314;5.710;2022-11-04T05:46:54;8.10;;;1.60;;
53843;SDS011;39744;53.314;5.710;2022-11-04T05:49:20;11.27;;;1.80;;
53843;SDS011;39744;53.314;5.710;2022-11-04T05:51:45;11.85;;;1.55;;
53843;SDS011;39744;53.314;5.710;2022-11-04T05:54:12;5.07;;;1.30;;
53843;SDS011;39744;53.314;5.710;2022-11-04T05:56:38;6.97;;;1.48;;
53843;SDS011;39744;53.314;5.710;2022-11-04T05:59:04;9.38;;;1.67;;
53843;SDS011;39744;53.314;5.710;2022-11-04T06:01:34;7.95;;;1.27;;
53843;SDS011;39744;53.314;5.710;2022-11-04T06:04:00;5.05;;;1.20;;
53843;SDS011;39744;53.314;5.710;2022-11-04T06:06:28;4.32;;;0.95;;
53843;SDS011;39744;53.314;5.710;2022-11-04T06:08:54;4.95;;;0.93;;
53843;SDS011;39744;53.314;5.710;2022-11-04T06:11:20;5.22;;;0.90;;
53843;SDS011;39744;53.314;5.710;2022-11-04T06:13:47;4.20;;;0.80;;
53843;SDS011;39744;53.314;5.710;2022-11-04T06:16:13;7.30;;;1.20;;
53843;SDS011;39744;53.314;5.710;2022-11-04T06:18:39;8.40;;;1.05;;
53843;SDS011;39744;53.314;5.710;2022-11-04T06:21:06;9.85;;;1.50;;
53843;SDS011;39744;53.314;5.710;2022-11-04T06:23:33;4.57;;;1.02;;
53843;SDS011;39744;53.314;5.710;2022-11-04T06:25:59;4.72;;;1.13;;
53843;SDS011;39744;53.314;5.710;2022-11-04T06:28:25;5.95;;;1.13;;
53843;SDS011;39744;53.314;5.710;2022-11-04T06:30:51;4.95;;;1.00;;
53843;SDS011;39744;53.314;5.710;2022-11-04T06:33:17;4.85;;;1.30;;
53843;SDS011;39744;53.314;5.710;2022-11-04T06:35:49;6.28;;;1.15;;
53843;SDS011;39744;53.314;5.710;2022-11-04T06:38:15;9.57;;;1.35;;
53843;SDS011;39744;53.314;5.710;2022-11-04T06:40:43;8.25;;;1.30;;
53843;SDS011;39744;53.314;5.710;2022-11-04T06:43:11;6.03;;;1.30;;
53843;SDS011;39744;53.314;5.710;2022-11-04T06:45:38;7.10;;;1.50;;
53843;SDS011;39744;53.314;5.710;2022-11-04T06:48:10;5.82;;;1.20;;
53843;SDS011;39744;53.314;5.710;2022-11-04T06:50:36;5.68;;;1.20;;
53843;SDS011;39744;53.314;5.710;2022-11-04T06:53:02;8.07;;;1.23;;
53843;SDS011;39744;53.314;5.710;2022-11-04T06:55:28;6.10;;;1.33;;
53843;SDS011;39744;53.314;5.710;2022-11-04T06:57:54;9.85;;;1.52;;
53843;SDS011;39744;53.314;5.710;2022-11-04T07:00:23;7.63;;;1.30;;
53843;SDS011;39744;53.314;5.710;2022-11-04T07:02:49;8.27;;;1.35;;
53843;SDS011;39744;53.314;5.710;2022-11-04T07:05:15;6.88;;;1.60;;
53843;SDS011;39744;53.314;5.710;2022-11-04T07:07:42;12.23;;;1.65;;
53843;SDS011;39744;53.314;5.710;2022-11-04T07:10:08;7.10;;;1.35;;
53843;SDS011;39744;53.314;5.710;2022-11-04T07:12:35;13.73;;;1.67;;
53843;SDS011;39744;53.314;5.710;2022-11-04T07:15:01;12.40;;;1.65;;
53843;SDS011;39744;53.314;5.710;2022-11-04T07:17:28;11.00;;;1.50;;
53843;SDS011;39744;53.314;5.710;2022-11-04T07:19:54;10.73;;;1.45;;
53843;SDS011;39744;53.314;5.710;2022-11-04T07:22:26;13.00;;;1.45;;
53843;SDS011;39744;53.314;5.710;2022-11-04T07:24:52;9.48;;;1.30;;
53843;SDS011;39744;53.314;5.710;2022-11-04T07:27:18;11.95;;;1.90;;
53843;SDS011;39744;53.314;5.710;2022-11-04T07:30:04;8.75;;;1.75;;
53843;SDS011;39744;53.314;5.710;2022-11-04T07:36:13;10.40;;;1.77;;
53843;SDS011;39744;53.314;5.710;2022-11-04T07:38:44;9.85;;;1.75;;
53843;SDS011;39744;53.314;5.710;2022-11-04T07:41:14;10.18;;;1.58;;
53843;SDS011;39744;53.314;5.710;2022-11-04T07:43:52;14.10;;;1.48;;
53843;SDS011;39744;53.314;5.710;2022-11-04T07:46:19;7.27;;;1.20;;
53843;SDS011;39744;53.314;5.710;2022-11-04T07:48:56;10.85;;;2.08;;
53843;SDS011;39744;53.314;5.710;2022-11-04T07:51:30;11.20;;;1.23;;
53843;SDS011;39744;53.314;5.710;2022-11-04T07:53:58;5.25;;;1.15;;
53843;SDS011;39744;53.314;5.710;2022-11-04T07:56:24;7.72;;;1.42;;
53843;SDS011;39744;53.314;5.710;2022-11-04T07:58:51;5.93;;;1.20;;
53843;SDS011;39744;53.314;5.710;2022-11-04T08:01:18;3.38;;;1.10;;
53843;SDS011;39744;53.314;5.710;2022-11-04T08:03:45;8.77;;;1.30;;
53843;SDS011;39744;53.314;5.710;2022-11-04T08:06:25;5.50;;;1.17;;
53843;SDS011;39744;53.314;5.710;2022-11-04T08:09:00;8.23;;;1.50;;
53843;SDS011;39744;53.314;5.710;2022-11-04T08:11:26;11.18;;;1.55;;
53843;SDS011;39744;53.314;5.710;2022-11-04T08:14:01;8.65;;;1.30;;
53843;SDS011;39744;53.314;5.710;2022-11-04T08:16:28;9.68;;;1.80;;
53843;SDS011;39744;53.314;5.710;2022-11-04T08:18:54;8.23;;;1.40;;
53843;SDS011;39744;53.314;5.710;2022-11-04T08:21:25;10.23;;;1.73;;
53843;SDS011;39744;53.314;5.710;2022-11-04T08:23:52;12.75;;;1.70;;
53843;SDS011;39744;53.314;5.710;2022-11-04T08:26:18;11.27;;;1.50;;
53843;SDS011;39744;53.314;5.710;2022-11-04T08:28:44;6.85;;;1.50;;
53843;SDS011;39744;53.314;5.710;2022-11-04T08:31:44;13.30;;;1.90;;
53843;SDS011;39744;53.314;5.710;2022-11-04T08:34:03;8.43;;;1.40;;
53843;SDS011;39744;53.314;5.710;2022-11-04T08:36:33;14.35;;;2.15;;
53843;SDS011;39744;53.314;5.710;2022-11-04T08:39:00;11.50;;;1.85;;
53843;SDS011;39744;53.314;5.710;2022-11-04T08:41:28;11.30;;;1.92;;
53843;SDS011;39744;53.314;5.710;2022-11-04T08:43:58;10.60;;;1.48;;
53843;SDS011;39744;53.314;5.710;2022-11-04T08:46:28;7.22;;;1.40;;
53843;SDS011;39744;53.314;5.710;2022-11-04T08:48:54;7.85;;;1.52;;
53843;SDS011;39744;53.314;5.710;2022-11-04T08:51:22;11.45;;;1.45;;
53843;SDS011;39744;53.314;5.710;2022-11-04T08:53:48;2.67;;;0.95;;
53843;SDS011;39744;53.314;5.710;2022-11-04T08:56:16;9.50;;;1.95;;
53843;SDS011;39744;53.314;5.710;2022-11-04T08:58:42;8.02;;;1.55;;
53843;SDS011;39744;53.314;5.710;2022-11-04T09:01:08;9.18;;;1.75;;
53843;SDS011;39744;53.314;5.710;2022-11-04T09:03:39;7.57;;;1.77;;
53843;SDS011;39744;53.314;5.710;2022-11-04T09:06:06;9.10;;;1.60;;
53843;SDS011;39744;53.314;5.710;2022-11-04T09:08:32;8.60;;;1.55;;
53843;SDS011;39744;53.314;5.710;2022-11-04T09:10:58;11.90;;;2.53;;
53843;SDS011;39744;53.314;5.710;2022-11-04T09:13:25;12.93;;;2.20;;
53843;SDS011;39744;53.314;5.710;2022-11-04T09:15:52;9.80;;;1.85;;
53843;SDS011;39744;53.314;5.710;2022-11-04T09:18:18;13.15;;;2.10;;
53843;SDS011;39744;53.314;5.710;2022-11-04T09:20:44;9.07;;;2.15;;
53843;SDS011;39744;53.314;5.710;2022-11-04T09:23:10;9.68;;;1.70;;
53843;SDS011;39744;53.314;5.710;2022-11-04T09:25:36;13.27;;;2.10;;
53843;SDS011;39744;53.314;5.710;2022-11-04T09:28:04;11.02;;;2.28;;
53843;SDS011;39744;53.314;5.710;2022-11-04T09:30:30;8.65;;;2.15;;
53843;SDS011;39744;53.314;5.710;2022-11-04T09:32:56;10.18;;;2.00;;
53843;SDS011;39744;53.314;5.710;2022-11-04T09:35:22;14.93;;;2.30;;
53843;SDS011;39744;53.314;5.710;2022-11-04T09:37:49;12.30;;;1.85;;
53843;SDS011;39744;53.314;5.710;2022-11-04T09:40:18;7.90;;;1.98;;
53843;SDS011;39744;53.314;5.710;2022-11-04T09:42:49;11.75;;;2.22;;
53843;SDS011;39744;53.314;5.710;2022-11-04T09:45:16;10.43;;;2.10;;
53843;SDS011;39744;53.314;5.710;2022-11-04T09:47:44;10.50;;;2.20;;
53843;SDS011;39744;53.314;5.710;2022-11-04T09:50:15;7.63;;;1.90;;
53843;SDS011;39744;53.314;5.710;2022-11-04T09:52:43;7.82;;;1.85;;
53843;SDS011;39744;53.314;5.710;2022-11-04T09:55:15;10.25;;;1.92;;
53843;SDS011;39744;53.314;5.710;2022-11-04T09:57:43;9.30;;;2.05;;
53843;SDS011;39744;53.314;5.710;2022-11-04T10:00:13;10.85;;;2.08;;
53843;SDS011;39744;53.314;5.710;2022-11-04T10:02:50;12.90;;;2.17;;
53843;SDS011;39744;53.314;5.710;2022-11-04T10:07:52;13.32;;;2.50;;
53843;SDS011;39744;53.314;5.710;2022-11-04T10:10:24;9.63;;;2.40;;
53843;SDS011;39744;53.314;5.710;2022-11-04T10:20:39;9.02;;;1.55;;
53843;SDS011;39744;53.314;5.710;2022-11-04T10:23:11;11.00;;;1.98;;
53843;SDS011;39744;53.314;5.710;2022-11-04T10:25:46;11.13;;;2.05;;
53843;SDS011;39744;53.314;5.710;2022-11-04T10:28:14;9.37;;;2.20;;
53843;SDS011;39744;53.314;5.710;2022-11-04T10:30:40;13.90;;;2.10;;
53843;SDS011;39744;53.314;5.710;2022-11-04T10:35:53;12.68;;;2.03;;
53843;SDS011;39744;53.314;5.710;2022-11-04T10:38:31;9.48;;;2.00;;
53843;SDS011;39744;53.314;5.710;2022-11-04T10:40:58;8.68;;;1.73;;
53843;SDS011;39744;53.314;5.710;2022-11-04T10:46:02;7.65;;;1.83;;
53843;SDS011;39744;53.314;5.710;2022-11-04T10:48:35;10.35;;;1.98;;
53843;SDS011;39744;53.314;5.710;2022-11-04T10:51:02;10.57;;;2.00;;
53843;SDS011;39744;53.314;5.710;2022-11-04T10:53:30;9.82;;;1.80;;
53843;SDS011;39744;53.314;5.710;2022-11-04T10:58:42;12.25;;;1.92;;
53843;SDS011;39744;53.314;5.710;2022-11-04T11:01:29;8.32;;;1.85;;
53843;SDS011;39744;53.314;5.710;2022-11-04T11:03:56;12.77;;;1.92;;
53843;SDS011;39744;53.314;5.710;2022-11-04T11:06:29;9.00;;;1.70;;
53843;SDS011;39744;53.314;5.710;2022-11-04T11:08:56;16.40;;;1.80;;
53843;SDS011;39744;53.314;5.710;2022-11-04T11:11:34;10.30;;;1.73;;
53843;SDS011;39744;53.314;5.710;2022-11-04T11:14:01;10.85;;;1.92;;
53843;SDS011;39744;53.314;5.710;2022-11-04T11:16:27;10.25;;;1.42;;
53843;SDS011;39744;53.314;5.710;2022-11-04T11:21:47;4.88;;;1.10;;
53843;SDS011;39744;53.314;5.710;2022-11-04T11:24:23;6.43;;;1.48;;
53843;SDS011;39744;53.314;5.710;2022-11-04T11:27:01;8.48;;;1.50;;
53843;SDS011;39744;53.314;5.710;2022-11-04T11:29:36;6.45;;;1.48;;
53843;SDS011;39744;53.314;5.710;2022-11-04T11:32:16;4.82;;;1.20;;
53843;SDS011;39744;53.314;5.710;2022-11-04T11:34:44;6.90;;;1.23;;
53843;SDS011;39744;53.314;5.710;2022-11-04T11:37:20;8.82;;;1.40;;
53843;SDS011;39744;53.314;5.710;2022-11-04T11:39:47;8.95;;;1.85;;
53843;SDS011;39744;53.314;5.710;2022-11-04T11:42:13;8.80;;;1.58;;
53843;SDS011;39744;53.314;5.710;2022-11-04T11:44:41;10.85;;;1.52;;
53843;SDS011;39744;53.314;5.710;2022-11-04T11:49:43;8.18;;;1.60;;
53843;SDS011;39744;53.314;5.710;2022-11-04T11:52:21;8.75;;;1.58;;
53843;SDS011;39744;53.314;5.710;2022-11-04T11:54:49;6.50;;;1.33;;
53843;SDS011;39744;53.314;5.710;2022-11-04T11:57:40;13.00;;;1.55;;
53843;SDS011;39744;53.314;5.710;2022-11-04T12:00:05;9.77;;;2.10;;
53843;SDS011;39744;53.314;5.710;2022-11-04T12:05:20;9.30;;;1.90;;
53843;SDS011;39744;53.314;5.710;2022-11-04T12:07:59;18.83;;;3.75;;
53843;SDS011;39744;53.314;5.710;2022-11-04T12:10:35;8.43;;;1.60;;
53843;SDS011;39744;53.314;5.710;2022-11-04T12:15:52;11.75;;;1.83;;
53843;SDS011;39744;53.314;5.710;2022-11-04T12:18:33;7.57;;;1.60;;
53843;SDS011;39744;53.314;5.710;2022-11-04T12:23:37;9.90;;;1.52;;
53843;SDS011;39744;53.314;5.710;2022-11-04T12:26:16;9.85;;;2.08;;
53843;SDS011;39744;53.314;5.710;2022-11-04T12:31:39;9.60;;;1.77;;
53843;SDS011;39744;53.314;5.710;2022-11-04T12:37:03;10.52;;;1.40;;
53843;SDS011;39744;53.314;5.710;2022-11-04T12:44:36;12.75;;;1.77;;
53843;SDS011;39744;53.314;5.710;2022-11-04T12:47:14;7.77;;;1.57;;
53843;SDS011;39744;53.314;5.710;2022-11-04T13:00:23;7.85;;;1.60;;
53843;SDS011;39744;53.314;5.710;2022-11-04T13:08:04;8.45;;;1.63;;
53843;SDS011;39744;53.314;5.710;2022-11-04T13:10:50;8.13;;;1.63;;
53843;SDS011;39744;53.314;5.710;2022-11-04T13:13:20;7.97;;;1.65;;
53843;SDS011;39744;53.314;5.710;2022-11-04T13:15:49;10.48;;;1.95;;
53843;SDS011;39744;53.314;5.710;2022-11-04T13:18:17;5.97;;;1.50;;
53843;SDS011;39744;53.314;5.710;2022-11-04T13:20:49;7.88;;;1.65;;
53843;SDS011;39744;53.314;5.710;2022-11-04T13:23:19;11.38;;;1.70;;
53843;SDS011;39744;53.314;5.710;2022-11-04T13:25:47;11.05;;;1.45;;
53843;SDS011;39744;53.314;5.710;2022-11-04T13:28:17;10.75;;;1.20;;
53843;SDS011;39744;53.314;5.710;2022-11-04T13:33:20;8.65;;;1.48;;
53843;SDS011;39744;53.314;5.710;2022-11-04T13:38:38;15.25;;;2.25;;
53843;SDS011;39744;53.314;5.710;2022-11-04T13:43:47;9.63;;;1.60;;
53843;SDS011;39744;53.314;5.710;2022-11-04T13:49:28;11.68;;;1.75;;
53843;SDS011;39744;53.314;5.710;2022-11-04T13:51:35;5.70;;;1.45;;
53843;SDS011;39744;53.314;5.710;2022-11-04T13:54:02;10.88;;;1.83;;
53843;SDS011;39744;53.314;5.710;2022-11-04T13:58:55;9.00;;;1.40;;
53843;SDS011;39744;53.314;5.710;2022-11-04T14:14:51;10.35;;;1.42;;
53843;SDS011;39744;53.314;5.710;2022-11-04T14:22:54;9.15;;;1.65;;
53843;SDS011;39744;53.314;5.710;2022-11-04T14:25:29;6.40;;;1.33;;
53843;SDS011;39744;53.314;5.710;2022-11-04T14:28:00;7.53;;;1.45;;
53843;SDS011;39744;53.314;5.710;2022-11-04T14:32:54;12.90;;;1.88;;
53843;SDS011;39744;53.314;5.710;2022-11-04T14:35:21;10.85;;;2.03;;
53843;SDS011;39744;53.314;5.710;2022-11-04T14:37:50;8.35;;;1.50;;
53843;SDS011;39744;53.314;5.710;2022-11-04T14:40:27;11.10;;;1.75;;
53843;SDS011;39744;53.314;5.710;2022-11-04T14:42:54;10.90;;;2.08;;
53843;SDS011;39744;53.314;5.710;2022-11-04T14:45:24;11.77;;;2.45;;
53843;SDS011;39744;53.314;5.710;2022-11-04T14:47:53;9.80;;;1.80;;
53843;SDS011;39744;53.314;5.710;2022-11-04T14:50:24;13.75;;;1.70;;
53843;SDS011;39744;53.314;5.710;2022-11-04T14:52:54;8.90;;;2.50;;
53843;SDS011;39744;53.314;5.710;2022-11-04T14:55:22;7.78;;;1.70;;
53843;SDS011;39744;53.314;5.710;2022-11-04T14:57:50;11.90;;;1.70;;
53843;SDS011;39744;53.314;5.710;2022-11-04T15:05:28;7.40;;;1.63;;
53843;SDS011;39744;53.314;5.710;2022-11-04T15:07:57;8.63;;;2.05;;
53843;SDS011;39744;53.314;5.710;2022-11-04T15:10:24;7.43;;;1.60;;
53843;SDS011;39744;53.314;5.710;2022-11-04T15:12:52;10.10;;;1.63;;
53843;SDS011;39744;53.314;5.710;2022-11-04T15:15:35;14.85;;;1.98;;
53843;SDS011;39744;53.314;5.710;2022-11-04T15:18:07;13.18;;;1.75;;
53843;SDS011;39744;53.314;5.710;2022-11-04T15:20:55;13.82;;;2.10;;
53843;SDS011;39744;53.314;5.710;2022-11-04T15:23:24;11.02;;;1.60;;
53843;SDS011;39744;53.314;5.710;2022-11-04T15:25:51;12.32;;;2.00;;
53843;SDS011;39744;53.314;5.710;2022-11-04T15:28:22;8.10;;;1.98;;
53843;SDS011;39744;53.314;5.710;2022-11-04T15:30:59;11.38;;;1.63;;
53843;SDS011;39744;53.314;5.710;2022-11-04T15:33:25;9.13;;;2.08;;
53843;SDS011;39744;53.314;5.710;2022-11-04T15:35:52;12.90;;;1.90;;
53843;SDS011;39744;53.314;5.710;2022-11-04T15:38:19;9.82;;;2.13;;
53843;SDS011;39744;53.314;5.710;2022-11-04T15:40:45;7.75;;;1.52;;
53843;SDS011;39744;53.314;5.710;2022-11-04T15:43:13;8.60;;;1.58;;
53843;SDS011;39744;53.314;5.710;2022-11-04T15:48:25;10.20;;;1.40;;
53843;SDS011;39744;53.314;5.710;2022-11-04T15:50:57;12.77;;;1.83;;
53843;SDS011;39744;53.314;5.710;2022-11-04T15:53:27;14.35;;;1.48;;
53843;SDS011;39744;53.314;5.710;2022-11-04T15:55:53;7.88;;;1.67;;
53843;SDS011;39744;53.314;5.710;2022-11-04T15:58:19;9.20;;;1.55;;
53843;SDS011;39744;53.314;5.710;2022-11-04T16:00:53;8.70;;;1.95;;
53843;SDS011;39744;53.314;5.710;2022-11-04T16:03:19;15.70;;;2.00;;
53843;SDS011;39744;53.314;5.710;2022-11-04T16:06:05;9.95;;;2.08;;
53843;SDS011;39744;53.314;5.710;2022-11-04T16:08:34;13.57;;;2.30;;
53843;SDS011;39744;53.314;5.710;2022-11-04T16:13:38;7.90;;;1.90;;
53843;SDS011;39744;53.314;5.710;2022-11-04T16:16:06;10.85;;;2.00;;
53843;SDS011;39744;53.314;5.710;2022-11-04T16:18:43;12.93;;;1.70;;
53843;SDS011;39744;53.314;5.710;2022-11-04T16:21:25;13.63;;;2.10;;
53843;SDS011;39744;53.314;5.710;2022-11-04T16:24:14;9.90;;;1.70;;
53843;SDS011;39744;53.314;5.710;2022-11-04T16:26:41;10.68;;;1.70;;
53843;SDS011;39744;53.314;5.710;2022-11-04T16:29:27;14.32;;;1.88;;
53843;SDS011;39744;53.314;5.710;2022-11-04T16:34:32;13.18;;;2.50;;
53843;SDS011;39744;53.314;5.710;2022-11-04T16:36:59;12.48;;;2.13;;
53843;SDS011;39744;53.314;5.710;2022-11-04T16:39:25;12.60;;;2.70;;
53843;SDS011;39744;53.314;5.710;2022-11-04T16:41:51;11.52;;;1.88;;
53843;SDS011;39744;53.314;5.710;2022-11-04T16:44:18;11.70;;;2.13;;
53843;SDS011;39744;53.314;5.710;2022-11-04T16:46:46;8.98;;;1.75;;
53843;SDS011;39744;53.314;5.710;2022-11-04T16:49:13;10.63;;;1.70;;
53843;SDS011;39744;53.314;5.710;2022-11-04T16:51:40;12.40;;;1.90;;
53843;SDS011;39744;53.314;5.710;2022-11-04T16:54:06;15.68;;;2.38;;
53843;SDS011;39744;53.314;5.710;2022-11-04T16:56:34;12.38;;;2.25;;
53843;SDS011;39744;53.314;5.710;2022-11-04T16:59:00;11.85;;;2.00;;
53843;SDS011;39744;53.314;5.710;2022-11-04T17:01:26;15.63;;;2.22;;
53843;SDS011;39744;53.314;5.710;2022-11-04T17:03:55;15.80;;;2.33;;
53843;SDS011;39744;53.314;5.710;2022-11-04T17:06:22;12.50;;;2.00;;
53843;SDS011;39744;53.314;5.710;2022-11-04T17:08:49;13.00;;;2.75;;